sensor_id;sensor_type;location;lat;lon;timestamp;P1;durP1;ratioP1;P2;durP2;ratioP2
29570;SDS011;16814;52.118;11.436;2023-07-22T00:02:21;10.30;;;3.67;;
29570;SDS011;16814;52.118;11.436;2023-07-22T00:04:48;5.50;;;3.43;;
29570;SDS011;16814;52.118;11.436;2023-07-22T00:07:17;8.50;;;3.58;;
29570;SDS011;16814;52.118;11.436;2023-07-22T00:09:42;8.07;;;3.65;;
29570;SDS011;16814;52.118;11.436;2023-07-22T00:12:09;6.03;;;3.93;;
29570;SDS011;16814;52.118;11.436;2023-07-22T00:14:39;7.13;;;3.83;;
29570;SDS011;16814;52.118;11.436;2023-07-22T00:17:06;6.25;;;4.00;;
29570;SDS011;16814;52.118;11.436;2023-07-22T00:19:32;7.53;;;4.17;;
29570;SDS011;16814;52.118;11.436;2023-07-22T00:21:59;6.05;;;3.95;;
29570;SDS011;16814;52.118;11.436;2023-07-22T00:24:24;10.00;;;4.53;;
29570;SDS011;16814;52.118;11.436;2023-07-22T00:26:50;7.30;;;4.10;;
29570;SDS011;16814;52.118;11.436;2023-07-22T00:29:16;9.07;;;4.53;;
29570;SDS011;16814;52.118;11.436;2023-07-22T00:31:41;8.85;;;4.30;;
29570;SDS011;16814;52.118;11.436;2023-07-22T00:34:07;12.47;;;4.50;;
29570;SDS011;16814;52.118;11.436;2023-07-22T00:36:33;8.50;;;4.47;;
29570;SDS011;16814;52.118;11.436;2023-07-22T00:38:59;8.43;;;4.40;;
29570;SDS011;16814;52.118;11.436;2023-07-22T00:41:26;7.28;;;4.05;;
29570;SDS011;16814;52.118;11.436;2023-07-22T00:43:52;6.27;;;3.80;;
29570;SDS011;16814;52.118;11.436;2023-07-22T00:46:17;7.88;;;4.10;;
29570;SDS011;16814;52.118;11.436;2023-07-22T00:48:43;6.60;;;3.83;;
29570;SDS011;16814;52.118;11.436;2023-07-22T00:51:09;6.73;;;4.03;;
29570;SDS011;16814;52.118;11.436;2023-07-22T00:53:34;5.60;;;3.63;;
29570;SDS011;16814;52.118;11.436;2023-07-22T00:56:00;6.82;;;3.60;;
29570;SDS011;16814;52.118;11.436;2023-07-22T00:58:25;7.50;;;3.60;;
29570;SDS011;16814;52.118;11.436;2023-07-22T01:00:51;7.00;;;3.67;;
29570;SDS011;16814;52.118;11.436;2023-07-22T01:03:17;6.20;;;3.38;;
29570;SDS011;16814;52.118;11.436;2023-07-22T01:05:43;6.25;;;3.47;;
29570;SDS011;16814;52.118;11.436;2023-07-22T01:08:10;7.95;;;3.47;;
29570;SDS011;16814;52.118;11.436;2023-07-22T01:10:36;4.73;;;3.60;;
29570;SDS011;16814;52.118;11.436;2023-07-22T01:13:02;6.67;;;3.53;;
29570;SDS011;16814;52.118;11.436;2023-07-22T01:15:27;6.97;;;3.23;;
29570;SDS011;16814;52.118;11.436;2023-07-22T01:17:53;5.10;;;3.33;;
29570;SDS011;16814;52.118;11.436;2023-07-22T01:20:21;7.03;;;3.42;;
29570;SDS011;16814;52.118;11.436;2023-07-22T01:22:51;4.85;;;3.55;;
29570;SDS011;16814;52.118;11.436;2023-07-22T01:25:17;6.25;;;3.55;;
29570;SDS011;16814;52.118;11.436;2023-07-22T01:27:44;7.32;;;3.70;;
29570;SDS011;16814;52.118;11.436;2023-07-22T01:30:10;4.88;;;3.53;;
29570;SDS011;16814;52.118;11.436;2023-07-22T01:32:36;6.97;;;3.77;;
29570;SDS011;16814;52.118;11.436;2023-07-22T01:35:02;7.57;;;3.50;;
29570;SDS011;16814;52.118;11.436;2023-07-22T01:37:27;4.53;;;3.28;;
29570;SDS011;16814;52.118;11.436;2023-07-22T01:39:53;6.60;;;3.27;;
29570;SDS011;16814;52.118;11.436;2023-07-22T01:42:22;5.53;;;3.53;;
29570;SDS011;16814;52.118;11.436;2023-07-22T01:44:48;4.40;;;3.38;;
29570;SDS011;16814;52.118;11.436;2023-07-22T01:47:13;4.13;;;3.20;;
29570;SDS011;16814;52.118;11.436;2023-07-22T01:49:39;4.22;;;3.33;;
29570;SDS011;16814;52.118;11.436;2023-07-22T01:52:04;9.05;;;3.42;;
29570;SDS011;16814;52.118;11.436;2023-07-22T01:54:30;4.90;;;3.47;;
29570;SDS011;16814;52.118;11.436;2023-07-22T01:56:56;6.00;;;3.45;;
29570;SDS011;16814;52.118;11.436;2023-07-22T01:59:21;6.15;;;3.50;;
29570;SDS011;16814;52.118;11.436;2023-07-22T02:01:47;7.00;;;3.80;;
29570;SDS011;16814;52.118;11.436;2023-07-22T02:04:12;5.23;;;3.60;;
29570;SDS011;16814;52.118;11.436;2023-07-22T02:06:38;6.00;;;4.07;;
29570;SDS011;16814;52.118;11.436;2023-07-22T02:09:04;6.77;;;4.53;;
29570;SDS011;16814;52.118;11.436;2023-07-22T02:11:33;7.07;;;4.47;;
29570;SDS011;16814;52.118;11.436;2023-07-22T02:14:00;6.43;;;4.55;;
29570;SDS011;16814;52.118;11.436;2023-07-22T02:16:25;8.35;;;5.00;;
29570;SDS011;16814;52.118;11.436;2023-07-22T02:18:51;8.23;;;5.10;;
29570;SDS011;16814;52.118;11.436;2023-07-22T02:21:16;10.30;;;5.73;;
29570;SDS011;16814;52.118;11.436;2023-07-22T02:23:42;11.23;;;5.80;;
29570;SDS011;16814;52.118;11.436;2023-07-22T02:26:07;14.13;;;6.20;;
29570;SDS011;16814;52.118;11.436;2023-07-22T02:28:33;10.43;;;5.90;;
29570;SDS011;16814;52.118;11.436;2023-07-22T02:31:00;11.33;;;6.73;;
29570;SDS011;16814;52.118;11.436;2023-07-22T02:33:30;11.50;;;6.90;;
29570;SDS011;16814;52.118;11.436;2023-07-22T02:35:56;12.85;;;7.07;;
29570;SDS011;16814;52.118;11.436;2023-07-22T02:38:21;11.03;;;6.83;;
29570;SDS011;16814;52.118;11.436;2023-07-22T02:40:47;11.77;;;7.20;;
29570;SDS011;16814;52.118;11.436;2023-07-22T02:43:12;14.60;;;7.40;;
29570;SDS011;16814;52.118;11.436;2023-07-22T02:45:38;12.83;;;7.37;;
29570;SDS011;16814;52.118;11.436;2023-07-22T02:48:03;13.73;;;8.20;;
29570;SDS011;16814;52.118;11.436;2023-07-22T02:50:29;16.00;;;8.30;;
29570;SDS011;16814;52.118;11.436;2023-07-22T02:52:55;13.43;;;7.65;;
29570;SDS011;16814;52.118;11.436;2023-07-22T02:55:21;17.00;;;8.43;;
29570;SDS011;16814;52.118;11.436;2023-07-22T02:57:48;13.38;;;8.60;;
29570;SDS011;16814;52.118;11.436;2023-07-22T03:00:14;13.68;;;8.38;;
29570;SDS011;16814;52.118;11.436;2023-07-22T03:02:49;12.45;;;7.85;;
29570;SDS011;16814;52.118;11.436;2023-07-22T03:05:16;12.75;;;7.85;;
29570;SDS011;16814;52.118;11.436;2023-07-22T03:07:41;13.60;;;7.90;;
29570;SDS011;16814;52.118;11.436;2023-07-22T03:10:07;12.13;;;7.45;;
29570;SDS011;16814;52.118;11.436;2023-07-22T03:12:33;13.23;;;7.57;;
29570;SDS011;16814;52.118;11.436;2023-07-22T03:15:00;13.27;;;7.63;;
29570;SDS011;16814;52.118;11.436;2023-07-22T03:17:26;12.18;;;7.40;;
29570;SDS011;16814;52.118;11.436;2023-07-22T03:19:52;11.95;;;6.90;;
29570;SDS011;16814;52.118;11.436;2023-07-22T03:22:18;14.60;;;7.57;;
29570;SDS011;16814;52.118;11.436;2023-07-22T03:24:46;11.82;;;7.45;;
29570;SDS011;16814;52.118;11.436;2023-07-22T03:27:12;13.20;;;7.27;;
29570;SDS011;16814;52.118;11.436;2023-07-22T03:29:40;12.18;;;7.38;;
29570;SDS011;16814;52.118;11.436;2023-07-22T03:32:06;12.90;;;7.63;;
29570;SDS011;16814;52.118;11.436;2023-07-22T03:34:32;11.50;;;7.40;;
29570;SDS011;16814;52.118;11.436;2023-07-22T03:36:58;10.77;;;7.13;;
29570;SDS011;16814;52.118;11.436;2023-07-22T03:39:24;12.52;;;7.32;;
29570;SDS011;16814;52.118;11.436;2023-07-22T03:41:49;15.13;;;7.78;;
29570;SDS011;16814;52.118;11.436;2023-07-22T03:44:15;12.90;;;7.60;;
29570;SDS011;16814;52.118;11.436;2023-07-22T03:46:41;12.38;;;7.35;;
29570;SDS011;16814;52.118;11.436;2023-07-22T03:49:06;12.17;;;7.07;;
29570;SDS011;16814;52.118;11.436;2023-07-22T03:51:32;14.45;;;7.32;;
29570;SDS011;16814;52.118;11.436;2023-07-22T03:53:58;9.80;;;7.00;;
29570;SDS011;16814;52.118;11.436;2023-07-22T03:56:24;13.25;;;7.57;;
29570;SDS011;16814;52.118;11.436;2023-07-22T03:58:50;13.60;;;7.20;;
29570;SDS011;16814;52.118;11.436;2023-07-22T04:01:16;15.35;;;8.00;;
29570;SDS011;16814;52.118;11.436;2023-07-22T04:03:42;16.27;;;7.60;;
29570;SDS011;16814;52.118;11.436;2023-07-22T04:06:07;11.30;;;7.30;;
29570;SDS011;16814;52.118;11.436;2023-07-22T04:08:33;12.53;;;7.70;;
29570;SDS011;16814;52.118;11.436;2023-07-22T04:10:59;12.63;;;7.43;;
29570;SDS011;16814;52.118;11.436;2023-07-22T04:13:25;15.27;;;7.70;;
29570;SDS011;16814;52.118;11.436;2023-07-22T04:15:51;12.00;;;7.13;;
29570;SDS011;16814;52.118;11.436;2023-07-22T04:18:17;13.60;;;7.70;;
29570;SDS011;16814;52.118;11.436;2023-07-22T04:20:44;13.13;;;7.30;;
29570;SDS011;16814;52.118;11.436;2023-07-22T04:23:10;15.82;;;7.88;;
29570;SDS011;16814;52.118;11.436;2023-07-22T04:25:39;11.82;;;7.22;;
29570;SDS011;16814;52.118;11.436;2023-07-22T04:28:05;11.63;;;7.20;;
29570;SDS011;16814;52.118;11.436;2023-07-22T04:30:32;13.57;;;8.05;;
29570;SDS011;16814;52.118;11.436;2023-07-22T04:32:58;14.82;;;7.30;;
29570;SDS011;16814;52.118;11.436;2023-07-22T04:35:23;11.57;;;7.30;;
29570;SDS011;16814;52.118;11.436;2023-07-22T04:37:49;12.93;;;7.67;;
29570;SDS011;16814;52.118;11.436;2023-07-22T04:40:14;15.77;;;7.82;;
29570;SDS011;16814;52.118;11.436;2023-07-22T04:42:41;13.87;;;7.83;;
29570;SDS011;16814;52.118;11.436;2023-07-22T04:45:08;14.57;;;7.43;;
29570;SDS011;16814;52.118;11.436;2023-07-22T04:47:37;12.50;;;7.25;;
29570;SDS011;16814;52.118;11.436;2023-07-22T04:50:09;13.13;;;7.40;;
29570;SDS011;16814;52.118;11.436;2023-07-22T04:52:35;12.43;;;7.17;;
29570;SDS011;16814;52.118;11.436;2023-07-22T04:55:02;14.70;;;7.45;;
29570;SDS011;16814;52.118;11.436;2023-07-22T04:57:38;13.82;;;7.50;;
29570;SDS011;16814;52.118;11.436;2023-07-22T05:00:05;13.82;;;7.60;;
29570;SDS011;16814;52.118;11.436;2023-07-22T05:02:33;11.33;;;6.73;;
29570;SDS011;16814;52.118;11.436;2023-07-22T05:04:59;12.73;;;7.35;;
29570;SDS011;16814;52.118;11.436;2023-07-22T05:07:24;12.77;;;6.93;;
29570;SDS011;16814;52.118;11.436;2023-07-22T05:09:50;13.80;;;6.80;;
29570;SDS011;16814;52.118;11.436;2023-07-22T05:12:16;13.10;;;7.60;;
29570;SDS011;16814;52.118;11.436;2023-07-22T05:14:42;11.50;;;6.90;;
29570;SDS011;16814;52.118;11.436;2023-07-22T05:17:09;22.52;;;7.30;;
29570;SDS011;16814;52.118;11.436;2023-07-22T05:19:35;52.45;;;9.02;;
29570;SDS011;16814;52.118;11.436;2023-07-22T05:22:00;27.10;;;7.40;;
29570;SDS011;16814;52.118;11.436;2023-07-22T05:24:26;115.40;;;10.80;;
29570;SDS011;16814;52.118;11.436;2023-07-22T05:26:52;16.52;;;7.03;;
29570;SDS011;16814;52.118;11.436;2023-07-22T05:29:18;22.83;;;6.80;;
29570;SDS011;16814;52.118;11.436;2023-07-22T05:31:44;14.90;;;6.80;;
29570;SDS011;16814;52.118;11.436;2023-07-22T05:34:10;15.47;;;6.50;;
29570;SDS011;16814;52.118;11.436;2023-07-22T05:36:36;13.07;;;6.60;;
29570;SDS011;16814;52.118;11.436;2023-07-22T05:39:01;15.98;;;6.68;;
29570;SDS011;16814;52.118;11.436;2023-07-22T05:41:27;12.23;;;6.30;;
29570;SDS011;16814;52.118;11.436;2023-07-22T05:43:52;15.00;;;6.70;;
29570;SDS011;16814;52.118;11.436;2023-07-22T05:46:18;19.97;;;6.60;;
29570;SDS011;16814;52.118;11.436;2023-07-22T05:48:43;14.37;;;6.40;;
29570;SDS011;16814;52.118;11.436;2023-07-22T05:51:09;15.35;;;6.70;;
29570;SDS011;16814;52.118;11.436;2023-07-22T05:53:34;17.75;;;6.15;;
29570;SDS011;16814;52.118;11.436;2023-07-22T05:56:00;13.00;;;5.90;;
29570;SDS011;16814;52.118;11.436;2023-07-22T05:58:26;11.87;;;5.50;;
29570;SDS011;16814;52.118;11.436;2023-07-22T06:00:53;11.32;;;6.05;;
29570;SDS011;16814;52.118;11.436;2023-07-22T06:03:19;16.65;;;6.43;;
29570;SDS011;16814;52.118;11.436;2023-07-22T06:05:46;12.32;;;5.80;;
29570;SDS011;16814;52.118;11.436;2023-07-22T06:08:11;11.25;;;5.47;;
29570;SDS011;16814;52.118;11.436;2023-07-22T06:10:37;11.63;;;5.38;;
29570;SDS011;16814;52.118;11.436;2023-07-22T06:13:05;12.63;;;5.60;;
29570;SDS011;16814;52.118;11.436;2023-07-22T06:15:31;11.38;;;5.97;;
29570;SDS011;16814;52.118;11.436;2023-07-22T06:17:57;22.30;;;5.80;;
29570;SDS011;16814;52.118;11.436;2023-07-22T06:20:22;11.13;;;5.63;;
29570;SDS011;16814;52.118;11.436;2023-07-22T06:22:48;11.77;;;5.93;;
29570;SDS011;16814;52.118;11.436;2023-07-22T06:25:14;10.73;;;5.68;;
29570;SDS011;16814;52.118;11.436;2023-07-22T06:27:39;11.05;;;5.65;;
29570;SDS011;16814;52.118;11.436;2023-07-22T06:30:05;15.17;;;5.90;;
29570;SDS011;16814;52.118;11.436;2023-07-22T06:32:31;13.23;;;5.50;;
29570;SDS011;16814;52.118;11.436;2023-07-22T06:34:57;10.65;;;5.60;;
29570;SDS011;16814;52.118;11.436;2023-07-22T06:37:23;8.83;;;5.23;;
29570;SDS011;16814;52.118;11.436;2023-07-22T06:39:49;11.27;;;5.00;;
29570;SDS011;16814;52.118;11.436;2023-07-22T06:42:15;12.88;;;5.10;;
29570;SDS011;16814;52.118;11.436;2023-07-22T06:44:40;13.70;;;5.30;;
29570;SDS011;16814;52.118;11.436;2023-07-22T06:47:06;10.83;;;4.87;;
29570;SDS011;16814;52.118;11.436;2023-07-22T06:49:32;9.32;;;4.93;;
29570;SDS011;16814;52.118;11.436;2023-07-22T06:51:57;12.27;;;4.90;;
29570;SDS011;16814;52.118;11.436;2023-07-22T06:54:23;10.93;;;4.97;;
29570;SDS011;16814;52.118;11.436;2023-07-22T06:56:48;9.23;;;4.53;;
29570;SDS011;16814;52.118;11.436;2023-07-22T06:59:14;8.50;;;4.75;;
29570;SDS011;16814;52.118;11.436;2023-07-22T07:01:39;14.23;;;5.50;;
29570;SDS011;16814;52.118;11.436;2023-07-22T07:04:06;12.27;;;4.97;;
29570;SDS011;16814;52.118;11.436;2023-07-22T07:06:32;13.25;;;5.20;;
29570;SDS011;16814;52.118;11.436;2023-07-22T07:09:00;9.27;;;4.80;;
29570;SDS011;16814;52.118;11.436;2023-07-22T07:11:26;9.55;;;4.78;;
29570;SDS011;16814;52.118;11.436;2023-07-22T07:13:53;10.32;;;4.50;;
29570;SDS011;16814;52.118;11.436;2023-07-22T07:16:25;8.70;;;4.77;;
29570;SDS011;16814;52.118;11.436;2023-07-22T07:18:56;10.30;;;5.00;;
29570;SDS011;16814;52.118;11.436;2023-07-22T07:21:23;8.32;;;4.78;;
29570;SDS011;16814;52.118;11.436;2023-07-22T07:23:50;10.30;;;5.18;;
29570;SDS011;16814;52.118;11.436;2023-07-22T07:26:16;12.67;;;5.13;;
29570;SDS011;16814;52.118;11.436;2023-07-22T07:28:42;8.43;;;4.90;;
29570;SDS011;16814;52.118;11.436;2023-07-22T07:31:08;11.57;;;5.10;;
29570;SDS011;16814;52.118;11.436;2023-07-22T07:33:34;10.00;;;4.95;;
29570;SDS011;16814;52.118;11.436;2023-07-22T07:35:59;12.20;;;5.40;;
29570;SDS011;16814;52.118;11.436;2023-07-22T07:38:25;10.27;;;4.80;;
29570;SDS011;16814;52.118;11.436;2023-07-22T07:40:55;10.18;;;5.10;;
29570;SDS011;16814;52.118;11.436;2023-07-22T07:43:21;14.27;;;4.80;;
29570;SDS011;16814;52.118;11.436;2023-07-22T07:45:47;10.27;;;4.80;;
29570;SDS011;16814;52.118;11.436;2023-07-22T07:48:12;11.47;;;4.87;;
29570;SDS011;16814;52.118;11.436;2023-07-22T07:50:38;11.25;;;5.30;;
29570;SDS011;16814;52.118;11.436;2023-07-22T07:53:04;14.93;;;5.13;;
29570;SDS011;16814;52.118;11.436;2023-07-22T07:55:29;17.07;;;4.87;;
29570;SDS011;16814;52.118;11.436;2023-07-22T07:57:55;23.70;;;4.90;;
29570;SDS011;16814;52.118;11.436;2023-07-22T08:00:20;10.27;;;4.23;;
29570;SDS011;16814;52.118;11.436;2023-07-22T08:02:46;9.75;;;4.93;;
29570;SDS011;16814;52.118;11.436;2023-07-22T08:05:12;21.60;;;4.85;;
29570;SDS011;16814;52.118;11.436;2023-07-22T08:07:38;21.93;;;5.03;;
29570;SDS011;16814;52.118;11.436;2023-07-22T08:10:04;10.40;;;4.78;;
29570;SDS011;16814;52.118;11.436;2023-07-22T08:12:32;10.60;;;4.55;;
29570;SDS011;16814;52.118;11.436;2023-07-22T08:14:58;13.57;;;4.87;;
29570;SDS011;16814;52.118;11.436;2023-07-22T08:17:24;9.30;;;4.50;;
29570;SDS011;16814;52.118;11.436;2023-07-22T08:19:49;14.70;;;5.10;;
29570;SDS011;16814;52.118;11.436;2023-07-22T08:22:15;9.07;;;4.20;;
29570;SDS011;16814;52.118;11.436;2023-07-22T08:24:40;10.63;;;4.17;;
29570;SDS011;16814;52.118;11.436;2023-07-22T08:27:07;9.43;;;4.65;;
29570;SDS011;16814;52.118;11.436;2023-07-22T08:29:32;10.67;;;4.87;;
29570;SDS011;16814;52.118;11.436;2023-07-22T08:31:58;7.75;;;4.60;;
29570;SDS011;16814;52.118;11.436;2023-07-22T08:34:23;7.97;;;4.40;;
29570;SDS011;16814;52.118;11.436;2023-07-22T08:36:49;18.30;;;5.25;;
29570;SDS011;16814;52.118;11.436;2023-07-22T08:39:15;7.23;;;4.60;;
29570;SDS011;16814;52.118;11.436;2023-07-22T08:41:40;9.57;;;4.10;;
29570;SDS011;16814;52.118;11.436;2023-07-22T08:44:12;8.00;;;4.07;;
29570;SDS011;16814;52.118;11.436;2023-07-22T08:46:40;10.30;;;4.22;;
29570;SDS011;16814;52.118;11.436;2023-07-22T08:49:07;12.00;;;4.40;;
29570;SDS011;16814;52.118;11.436;2023-07-22T08:51:34;15.63;;;4.60;;
29570;SDS011;16814;52.118;11.436;2023-07-22T08:54:02;11.85;;;4.53;;
29570;SDS011;16814;52.118;11.436;2023-07-22T08:56:28;12.90;;;4.93;;
29570;SDS011;16814;52.118;11.436;2023-07-22T08:58:54;13.55;;;4.80;;
29570;SDS011;16814;52.118;11.436;2023-07-22T09:01:21;7.97;;;4.63;;
29570;SDS011;16814;52.118;11.436;2023-07-22T09:03:48;11.32;;;5.60;;
29570;SDS011;16814;52.118;11.436;2023-07-22T09:06:16;10.07;;;4.80;;
29570;SDS011;16814;52.118;11.436;2023-07-22T09:08:42;10.40;;;4.88;;
29570;SDS011;16814;52.118;11.436;2023-07-22T09:11:08;11.80;;;5.40;;
29570;SDS011;16814;52.118;11.436;2023-07-22T09:13:35;9.85;;;4.60;;
29570;SDS011;16814;52.118;11.436;2023-07-22T09:16:02;19.23;;;4.97;;
29570;SDS011;16814;52.118;11.436;2023-07-22T09:18:28;14.43;;;4.82;;
29570;SDS011;16814;52.118;11.436;2023-07-22T09:20:53;16.17;;;4.70;;
29570;SDS011;16814;52.118;11.436;2023-07-22T09:23:31;10.10;;;4.70;;
29570;SDS011;16814;52.118;11.436;2023-07-22T09:26:07;6.63;;;4.20;;
29570;SDS011;16814;52.118;11.436;2023-07-22T09:31:16;10.77;;;4.83;;
29570;SDS011;16814;52.118;11.436;2023-07-22T09:33:41;8.07;;;4.72;;
29570;SDS011;16814;52.118;11.436;2023-07-22T09:36:09;7.88;;;5.15;;
29570;SDS011;16814;52.118;11.436;2023-07-22T09:38:36;8.70;;;5.10;;
29570;SDS011;16814;52.118;11.436;2023-07-22T09:41:01;9.87;;;5.17;;
29570;SDS011;16814;52.118;11.436;2023-07-22T09:43:27;14.17;;;5.50;;
29570;SDS011;16814;52.118;11.436;2023-07-22T09:45:54;8.50;;;5.13;;
29570;SDS011;16814;52.118;11.436;2023-07-22T09:48:21;11.30;;;5.05;;
29570;SDS011;16814;52.118;11.436;2023-07-22T09:50:55;8.82;;;5.30;;
29570;SDS011;16814;52.118;11.436;2023-07-22T09:53:22;11.38;;;5.38;;
29570;SDS011;16814;52.118;11.436;2023-07-22T09:55:47;8.93;;;5.47;;
29570;SDS011;16814;52.118;11.436;2023-07-22T09:58:13;9.07;;;5.40;;
29570;SDS011;16814;52.118;11.436;2023-07-22T10:00:40;13.70;;;5.50;;
29570;SDS011;16814;52.118;11.436;2023-07-22T10:03:12;14.63;;;5.23;;
29570;SDS011;16814;52.118;11.436;2023-07-22T10:05:38;11.20;;;5.83;;
29570;SDS011;16814;52.118;11.436;2023-07-22T10:08:05;10.10;;;5.80;;
29570;SDS011;16814;52.118;11.436;2023-07-22T10:10:33;15.73;;;6.28;;
29570;SDS011;16814;52.118;11.436;2023-07-22T10:13:00;15.32;;;5.95;;
29570;SDS011;16814;52.118;11.436;2023-07-22T10:15:28;16.90;;;6.50;;
29570;SDS011;16814;52.118;11.436;2023-07-22T10:17:55;15.37;;;7.13;;
29570;SDS011;16814;52.118;11.436;2023-07-22T10:20:21;15.20;;;6.80;;
29570;SDS011;16814;52.118;11.436;2023-07-22T10:22:48;11.30;;;6.60;;
29570;SDS011;16814;52.118;11.436;2023-07-22T10:25:15;10.57;;;6.73;;
29570;SDS011;16814;52.118;11.436;2023-07-22T10:27:43;8.85;;;6.00;;
29570;SDS011;16814;52.118;11.436;2023-07-22T10:30:09;10.82;;;6.43;;
29570;SDS011;16814;52.118;11.436;2023-07-22T10:32:37;13.73;;;7.40;;
29570;SDS011;16814;52.118;11.436;2023-07-22T10:35:05;10.60;;;6.70;;
29570;SDS011;16814;52.118;11.436;2023-07-22T10:37:35;12.43;;;6.93;;
29570;SDS011;16814;52.118;11.436;2023-07-22T10:42:50;15.75;;;8.10;;
29570;SDS011;16814;52.118;11.436;2023-07-22T10:45:27;10.67;;;6.37;;
29570;SDS011;16814;52.118;11.436;2023-07-22T10:48:01;12.88;;;7.20;;
29570;SDS011;16814;52.118;11.436;2023-07-22T10:50:45;11.50;;;5.73;;
29570;SDS011;16814;52.118;11.436;2023-07-22T10:53:14;9.43;;;5.88;;
29570;SDS011;16814;52.118;11.436;2023-07-22T10:56:03;9.05;;;5.53;;
29570;SDS011;16814;52.118;11.436;2023-07-22T11:12:08;7.43;;;5.13;;
29570;SDS011;16814;52.118;11.436;2023-07-22T11:14:52;10.40;;;5.75;;
29570;SDS011;16814;52.118;11.436;2023-07-22T11:17:30;10.27;;;4.97;;
29570;SDS011;16814;52.118;11.436;2023-07-22T11:20:00;9.65;;;5.07;;
29570;SDS011;16814;52.118;11.436;2023-07-22T11:22:26;12.30;;;4.87;;
29570;SDS011;16814;52.118;11.436;2023-07-22T11:24:54;9.57;;;4.57;;
29570;SDS011;16814;52.118;11.436;2023-07-22T11:27:20;5.95;;;4.00;;
29570;SDS011;16814;52.118;11.436;2023-07-22T11:29:47;10.43;;;4.03;;
29570;SDS011;16814;52.118;11.436;2023-07-22T11:32:16;4.90;;;2.92;;
29570;SDS011;16814;52.118;11.436;2023-07-22T11:34:43;5.90;;;3.00;;
29570;SDS011;16814;52.118;11.436;2023-07-22T11:37:09;4.37;;;2.73;;
29570;SDS011;16814;52.118;11.436;2023-07-22T11:39:35;4.53;;;3.28;;
29570;SDS011;16814;52.118;11.436;2023-07-22T11:42:03;9.37;;;3.20;;
29570;SDS011;16814;52.118;11.436;2023-07-22T11:44:29;5.40;;;3.03;;
29570;SDS011;16814;52.118;11.436;2023-07-22T11:46:55;8.83;;;3.33;;
29570;SDS011;16814;52.118;11.436;2023-07-22T11:49:35;3.95;;;2.92;;
29570;SDS011;16814;52.118;11.436;2023-07-22T11:52:15;5.20;;;2.92;;
29570;SDS011;16814;52.118;11.436;2023-07-22T11:54:45;8.10;;;3.17;;
29570;SDS011;16814;52.118;11.436;2023-07-22T11:59:46;6.33;;;3.30;;
29570;SDS011;16814;52.118;11.436;2023-07-22T12:02:13;9.13;;;4.25;;
29570;SDS011;16814;52.118;11.436;2023-07-22T12:04:40;6.68;;;3.78;;
29570;SDS011;16814;52.118;11.436;2023-07-22T12:07:05;7.43;;;3.40;;
29570;SDS011;16814;52.118;11.436;2023-07-22T12:09:31;9.47;;;3.20;;
29570;SDS011;16814;52.118;11.436;2023-07-22T12:11:59;6.23;;;3.67;;
29570;SDS011;16814;52.118;11.436;2023-07-22T12:14:34;6.33;;;3.90;;
29570;SDS011;16814;52.118;11.436;2023-07-22T12:17:00;7.00;;;3.60;;
29570;SDS011;16814;52.118;11.436;2023-07-22T12:19:29;7.20;;;3.80;;
29570;SDS011;16814;52.118;11.436;2023-07-22T12:21:55;7.50;;;4.20;;
29570;SDS011;16814;52.118;11.436;2023-07-22T12:24:21;7.88;;;4.00;;
29570;SDS011;16814;52.118;11.436;2023-07-22T12:26:46;5.97;;;3.90;;
29570;SDS011;16814;52.118;11.436;2023-07-22T12:29:12;6.60;;;3.97;;
29570;SDS011;16814;52.118;11.436;2023-07-22T12:31:37;7.90;;;4.05;;
29570;SDS011;16814;52.118;11.436;2023-07-22T12:34:03;7.20;;;3.83;;
29570;SDS011;16814;52.118;11.436;2023-07-22T12:36:29;7.17;;;4.43;;
29570;SDS011;16814;52.118;11.436;2023-07-22T12:38:55;8.48;;;4.15;;
29570;SDS011;16814;52.118;11.436;2023-07-22T12:41:20;10.15;;;4.65;;
29570;SDS011;16814;52.118;11.436;2023-07-22T12:43:46;11.50;;;4.97;;
29570;SDS011;16814;52.118;11.436;2023-07-22T12:46:11;7.50;;;4.60;;
29570;SDS011;16814;52.118;11.436;2023-07-22T12:48:37;10.10;;;4.80;;
29570;SDS011;16814;52.118;11.436;2023-07-22T12:51:03;8.88;;;4.93;;
29570;SDS011;16814;52.118;11.436;2023-07-22T12:53:29;11.13;;;5.07;;
29570;SDS011;16814;52.118;11.436;2023-07-22T12:55:54;6.70;;;4.53;;
29570;SDS011;16814;52.118;11.436;2023-07-22T12:58:20;7.60;;;4.37;;
29570;SDS011;16814;52.118;11.436;2023-07-22T13:00:45;8.43;;;4.73;;
29570;SDS011;16814;52.118;11.436;2023-07-22T13:03:11;7.63;;;4.57;;
29570;SDS011;16814;52.118;11.436;2023-07-22T13:05:37;7.22;;;4.40;;
29570;SDS011;16814;52.118;11.436;2023-07-22T13:08:02;6.63;;;4.13;;
29570;SDS011;16814;52.118;11.436;2023-07-22T13:10:31;7.37;;;4.57;;
29570;SDS011;16814;52.118;11.436;2023-07-22T13:13:02;7.65;;;4.60;;
29570;SDS011;16814;52.118;11.436;2023-07-22T13:15:28;6.70;;;4.33;;
29570;SDS011;16814;52.118;11.436;2023-07-22T13:17:53;7.00;;;4.37;;
29570;SDS011;16814;52.118;11.436;2023-07-22T13:20:19;5.93;;;4.20;;
29570;SDS011;16814;52.118;11.436;2023-07-22T13:22:44;9.50;;;4.40;;
29570;SDS011;16814;52.118;11.436;2023-07-22T13:25:10;7.73;;;4.40;;
29570;SDS011;16814;52.118;11.436;2023-07-22T13:27:35;6.32;;;4.20;;
29570;SDS011;16814;52.118;11.436;2023-07-22T13:30:03;6.17;;;3.90;;
29570;SDS011;16814;52.118;11.436;2023-07-22T13:32:30;7.80;;;4.45;;
29570;SDS011;16814;52.118;11.436;2023-07-22T13:34:55;6.47;;;4.33;;
29570;SDS011;16814;52.118;11.436;2023-07-22T13:37:21;6.67;;;4.20;;
29570;SDS011;16814;52.118;11.436;2023-07-22T13:39:46;7.30;;;4.20;;
29570;SDS011;16814;52.118;11.436;2023-07-22T13:42:12;5.80;;;4.30;;
29570;SDS011;16814;52.118;11.436;2023-07-22T13:44:37;5.60;;;4.30;;
29570;SDS011;16814;52.118;11.436;2023-07-22T13:47:03;7.00;;;4.70;;
29570;SDS011;16814;52.118;11.436;2023-07-22T13:49:29;8.65;;;4.75;;
29570;SDS011;16814;52.118;11.436;2023-07-22T13:51:54;7.83;;;4.20;;
29570;SDS011;16814;52.118;11.436;2023-07-22T13:54:20;10.33;;;4.93;;
29570;SDS011;16814;52.118;11.436;2023-07-22T13:56:45;6.10;;;4.30;;
29570;SDS011;16814;52.118;11.436;2023-07-22T13:59:12;7.53;;;4.83;;
29570;SDS011;16814;52.118;11.436;2023-07-22T14:01:38;10.80;;;4.80;;
29570;SDS011;16814;52.118;11.436;2023-07-22T14:04:04;7.88;;;3.95;;
29570;SDS011;16814;52.118;11.436;2023-07-22T14:06:30;6.53;;;4.30;;
29570;SDS011;16814;52.118;11.436;2023-07-22T14:08:56;6.78;;;4.43;;
29570;SDS011;16814;52.118;11.436;2023-07-22T14:11:21;7.77;;;4.40;;
29570;SDS011;16814;52.118;11.436;2023-07-22T14:13:47;7.93;;;4.20;;
29570;SDS011;16814;52.118;11.436;2023-07-22T14:16:12;10.00;;;4.83;;
29570;SDS011;16814;52.118;11.436;2023-07-22T14:18:38;7.13;;;4.22;;
29570;SDS011;16814;52.118;11.436;2023-07-22T14:21:03;8.95;;;4.72;;
29570;SDS011;16814;52.118;11.436;2023-07-22T14:23:29;9.38;;;4.45;;
29570;SDS011;16814;52.118;11.436;2023-07-22T14:25:55;6.07;;;4.30;;
29570;SDS011;16814;52.118;11.436;2023-07-22T14:28:20;7.13;;;4.50;;
29570;SDS011;16814;52.118;11.436;2023-07-22T14:30:46;5.67;;;4.50;;
29570;SDS011;16814;52.118;11.436;2023-07-22T14:33:11;6.20;;;4.53;;
29570;SDS011;16814;52.118;11.436;2023-07-22T14:35:37;7.00;;;4.53;;
29570;SDS011;16814;52.118;11.436;2023-07-22T14:38:02;10.52;;;4.97;;
29570;SDS011;16814;52.118;11.436;2023-07-22T14:40:29;6.45;;;4.38;;
29570;SDS011;16814;52.118;11.436;2023-07-22T14:42:54;9.75;;;4.53;;
29570;SDS011;16814;52.118;11.436;2023-07-22T14:45:20;7.22;;;4.57;;
29570;SDS011;16814;52.118;11.436;2023-07-22T14:47:45;8.20;;;5.07;;